Time;durP1;ratioP1;P1;durP2;ratioP2;P2;SDS_P1;SDS_P2;PMS_P1;PMS_P2;Temp;Humidity;BMP_temperature;BMP_pressure;BME280_temperature;BME280_humidity;BME280_pressure;Samples;Min_cycle;Max_cycle;Signal;HPM_P1;HPM_P2
2022/09/29 00:00:13;;;;;;;;;;;;;;;9.51;79.04;98285.34;5054359;28;19912;-90
2022/09/29 00:02:38;;;;;;;;;;;;;;;9.41;79.40;98295.28;5052810;28;20396;-90
2022/09/29 00:05:04;;;;;;;;;;;;;;;9.27;79.85;98294.38;5055371;28;19908;-89
2022/09/29 00:07:31;;;;;;;;;;;;;;;9.10;80.83;98292.94;5056558;28;19992;-91
2022/09/29 00:09:56;;;;;;;;;;;;;;;9.38;80.11;98303.19;5057785;28;19915;-90
2022/09/29 00:12:21;;;;;;;;;;;;;;;9.51;79.54;98297.03;5055730;28;19908;-90
2022/09/29 00:14:46;;;;;;;;;;;;;;;9.62;78.71;98294.97;5053858;28;20350;-91
2022/09/29 00:17:12;;;;;;;;;;;;;;;9.60;78.66;98299.88;5053951;28;19915;-90
2022/09/29 00:19:38;;;;;;;;;;;;;;;9.65;78.25;98297.13;5054331;28;20367;-90
2022/09/29 00:22:03;;;;;;;;;;;;;;;9.51;79.37;98298.94;5054791;28;19913;-90
2022/09/29 00:24:28;;;;;;;;;;;;;;;9.67;78.53;98294.91;5054587;28;20399;-89
2022/09/29 00:26:54;;;;;;;;;;;;;;;9.47;79.72;98287.84;5057950;28;20257;-90
2022/09/29 00:29:19;;;;;;;;;;;;;;;9.26;80.03;98298.19;5056516;28;19908;-89
2022/09/29 00:31:44;;;;;;;;;;;;;;;9.21;80.97;98296.34;5057655;28;19912;-89
2022/09/29 00:34:09;;;;;;;;;;;;;;;9.12;80.90;98293.47;5057997;28;19935;-90
2022/09/29 00:36:35;;;;;;;;;;;;;;;9.37;80.33;98293.41;5057411;28;19912;-90
2022/09/29 00:39:00;;;;;;;;;;;;;;;9.60;79.21;98291.72;5058062;28;19913;-90
2022/09/29 00:41:28;;;;;;;;;;;;;;;9.44;79.72;98294.66;5058239;28;20348;-89
2022/09/29 00:43:56;;;;;;;;;;;;;;;9.67;78.97;98292.19;5058199;28;19971;-90
2022/09/29 00:46:42;;;;;;;;;;;;;;;9.75;78.81;98287.97;5057392;28;19913;-90
2022/09/29 00:49:14;;;;;;;;;;;;;;;9.72;78.24;98298.66;5056808;28;19908;-89
2022/09/29 00:51:42;;;;;;;;;;;;;;;9.57;78.63;98290.44;5057398;28;19909;-90
2022/09/29 00:54:09;;;;;;;;;;;;;;;9.49;79.19;98298.44;5057408;28;19957;-89
2022/09/29 00:56:36;;;;;;;;;;;;;;;9.41;79.20;98306.16;5057295;28;20007;-90
2022/09/29 00:59:03;;;;;;;;;;;;;;;9.32;79.89;98297.00;5057032;28;20238;-90
2022/09/29 01:01:30;;;;;;;;;;;;;;;9.37;79.92;98299.69;5057742;28;20257;-91
2022/09/29 01:03:59;;;;;;;;;;;;;;;9.32;80.17;98297.00;5057423;28;20380;-90
2022/09/29 01:06:31;;;;;;;;;;;;;;;9.49;79.58;98295.72;5057239;28;19913;-91
2022/09/29 01:09:01;;;;;;;;;;;;;;;9.39;79.59;98291.22;5057448;28;19919;-90
2022/09/29 01:11:28;;;;;;;;;;;;;;;9.52;79.49;98292.41;5057101;28;19931;-90
2022/09/29 01:13:56;;;;;;;;;;;;;;;9.55;79.23;98284.47;5057234;28;19916;-91
2022/09/29 01:16:21;;;;;;;;;;;;;;;9.49;79.34;98301.16;5057118;28;19916;-90
2022/09/29 01:18:46;;;;;;;;;;;;;;;9.67;78.53;98296.81;5056776;28;19908;-91
2022/09/29 01:21:30;;;;;;;;;;;;;;;9.57;79.26;98290.44;5055410;28;19909;-90
2022/09/29 01:24:20;;;;;;;;;;;;;;;9.52;79.18;98289.69;5056869;28;19908;-90
2022/09/29 01:26:52;;;;;;;;;;;;;;;9.36;79.54;98300.75;5057068;28;19916;-90
2022/09/29 01:29:26;;;;;;;;;;;;;;;9.32;80.31;98297.00;5056633;28;19909;-90
2022/09/29 01:31:51;;;;;;;;;;;;;;;9.24;80.66;98301.19;5056531;28;19915;-90
2022/09/29 01:34:35;;;;;;;;;;;;;;;9.41;79.88;98299.91;5055522;28;19909;-90
2022/09/29 01:37:14;;;;;;;;;;;;;;;9.42;79.78;98296.88;5055954;28;19912;-90
2022/09/29 01:39:42;;;;;;;;;;;;;;;9.39;79.60;98302.09;5057119;28;20003;-90
2022/09/29 01:42:07;;;;;;;;;;;;;;;9.28;80.06;98296.78;5055988;28;19909;-90
2022/09/29 01:44:36;;;;;;;;;;;;;;;9.37;79.92;98298.88;5056834;28;19913;-90
2022/09/29 01:47:05;;;;;;;;;;;;;;;9.47;79.70;98298.72;5056418;28;19909;-90
2022/09/29 01:49:33;;;;;;;;;;;;;;;9.59;79.06;98301.00;5056655;28;19912;-90
2022/09/29 01:52:04;;;;;;;;;;;;;;;9.41;79.49;98303.44;5056298;28;20334;-90
2022/09/29 01:54:36;;;;;;;;;;;;;;;9.29;79.94;98308.50;5055086;28;19909;-90
2022/09/29 01:57:07;;;;;;;;;;;;;;;9.38;80.04;98305.91;5056087;28;20376;-90
2022/09/29 01:59:44;;;;;;;;;;;;;;;9.28;80.38;98301.41;5056168;28;19951;-90
2022/09/29 02:02:14;;;;;;;;;;;;;;;9.32;80.05;98313.34;5056191;28;19916;-90
2022/09/29 02:04:41;;;;;;;;;;;;;;;9.27;80.16;98310.69;5056225;28;19908;-90
2022/09/29 02:07:15;;;;;;;;;;;;;;;9.39;79.88;98300.19;5055947;28;19915;-90
2022/09/29 02:09:44;;;;;;;;;;;;;;;9.32;79.30;98305.97;5056431;28;19913;-90
2022/09/29 02:12:12;;;;;;;;;;;;;;;9.29;79.77;98308.50;5056323;28;19991;-90
2022/09/29 02:14:41;;;;;;;;;;;;;;;9.15;80.42;98309.22;5056170;28;19916;-90
2022/09/29 02:17:10;;;;;;;;;;;;;;;9.17;80.19;98308.91;5055949;28;19909;-90
2022/09/29 02:19:39;;;;;;;;;;;;;;;9.19;80.32;98310.22;5055827;28;19951;-90
2022/09/29 02:22:04;;;;;;;;;;;;;;;9.20;80.36;98309.13;5056309;28;19909;-90
2022/09/29 02:24:30;;;;;;;;;;;;;;;9.09;80.40;98311.16;5056550;28;19961;-90
2022/09/29 02:26:55;;;;;;;;;;;;;;;9.18;80.27;98308.63;5055729;28;19957;-90
2022/09/29 02:29:21;;;;;;;;;;;;;;;9.30;79.84;98304.66;5055528;28;19909;-90
2022/09/29 02:31:46;;;;;;;;;;;;;;;9.38;79.40;98301.28;5055033;28;20312;-90
2022/09/29 02:34:13;;;;;;;;;;;;;;;9.38;79.66;98306.72;5055713;28;20398;-90
2022/09/29 02:36:54;;;;;;;;;;;;;;;9.48;79.50;98310.44;5055383;28;19912;-90
2022/09/29 02:39:27;;;;;;;;;;;;;;;9.43;79.50;98309.41;5055833;28;19909;-90
2022/09/29 02:41:52;;;;;;;;;;;;;;;9.62;78.92;98310.50;5055648;28;20223;-90
2022/09/29 02:44:28;;;;;;;;;;;;;;;9.51;79.36;98309.81;5055938;28;19913;-90
2022/09/29 02:47:06;;;;;;;;;;;;;;;9.40;80.41;98309.97;5055657;28;20366;-90
2022/09/29 02:49:50;;;;;;;;;;;;;;;9.49;80.39;98312.84;5055192;28;19912;-90
2022/09/29 02:52:15;;;;;;;;;;;;;;;9.57;80.23;98316.81;5055623;28;20341;-90
2022/09/29 02:54:48;;;;;;;;;;;;;;;9.79;78.85;98299.91;5055919;28;19916;-90
2022/09/29 02:57:27;;;;;;;;;;;;;;;9.83;78.34;98313.72;5055280;28;19912;-90
2022/09/29 03:00:07;;;;;;;;;;;;;;;9.69;78.70;98319.91;5055631;28;19912;-90
2022/09/29 03:02:33;;;;;;;;;;;;;;;9.72;78.50;98312.25;5055335;28;19909;-90
2022/09/29 03:04:58;;;;;;;;;;;;;;;9.69;78.16;98310.94;5055532;28;20253;-90
2022/09/29 03:07:23;;;;;;;;;;;;;;;9.78;78.04;98306.44;5054906;28;19912;-91
2022/09/29 03:09:49;;;;;;;;;;;;;;;9.64;78.44;98309.09;5054979;28;19920;-90
2022/09/29 03:12:14;;;;;;;;;;;;;;;9.65;78.55;98308.00;5054856;28;19909;-90
2022/09/29 03:14:39;;;;;;;;;;;;;;;9.66;78.35;98306.88;5055425;28;19947;-90
2022/09/29 03:17:04;;;;;;;;;;;;;;;9.59;78.41;98306.44;5054503;28;20250;-89
2022/09/29 03:19:29;;;;;;;;;;;;;;;9.49;79.08;98309.31;5054976;28;20007;-90
2022/09/29 03:21:55;;;;;;;;;;;;;;;9.66;78.18;98304.16;5054976;28;20312;-90
2022/09/29 03:24:20;;;;;;;;;;;;;;;9.64;78.45;98303.66;5055713;28;19908;-89
2022/09/29 03:26:45;;;;;;;;;;;;;;;9.61;78.66;98300.72;5054930;28;19916;-89
2022/09/29 03:29:10;;;;;;;;;;;;;;;9.78;78.13;98294.75;5054568;28;19908;-89
2022/09/29 03:31:38;;;;;;;;;;;;;;;9.80;77.72;98303.44;5054775;28;19909;-90
2022/09/29 03:34:03;;;;;;;;;;;;;;;9.64;77.90;98298.19;5055407;28;19915;-89
2022/09/29 03:36:29;;;;;;;;;;;;;;;9.41;78.09;98306.16;5054540;28;19913;-89
2022/09/29 03:38:54;;;;;;;;;;;;;;;9.56;78.44;98304.31;5054662;28;19916;-89
2022/09/29 03:41:19;;;;;;;;;;;;;;;9.26;79.06;98309.88;5054904;28;19908;-89
2022/09/29 03:43:45;;;;;;;;;;;;;;;8.87;80.93;98308.97;5054776;28;19935;-89
2022/09/29 03:46:10;;;;;;;;;;;;;;;8.66;81.68;98311.09;5055123;28;19908;-89
2022/09/29 03:48:35;;;;;;;;;;;;;;;8.49;82.33;98307.72;5054573;28;20381;-89
2022/09/29 03:51:01;;;;;;;;;;;;;;;8.63;81.76;98307.06;5054805;28;20011;-89
2022/09/29 03:53:26;;;;;;;;;;;;;;;8.34;82.12;98305.16;5054421;28;19913;-89
2022/09/29 03:55:51;;;;;;;;;;;;;;;8.16;83.38;98312.88;5054900;28;20001;-89
2022/09/29 03:58:17;;;;;;;;;;;;;;;8.33;82.16;98312.47;5054582;28;19909;-88
2022/09/29 04:00:42;;;;;;;;;;;;;;;8.26;82.42;98312.78;5057235;28;19909;-89
2022/09/29 04:03:08;;;;;;;;;;;;;;;8.29;82.09;98316.84;5059474;28;19915;-89
2022/09/29 04:05:37;;;;;;;;;;;;;;;8.53;80.69;98319.63;5060575;28;19951;-89
2022/09/29 04:08:05;;;;;;;;;;;;;;;8.55;81.19;98321.22;5058105;28;19939;-89
2022/09/29 04:10:34;;;;;;;;;;;;;;;8.73;80.46;98319.72;5058118;28;19944;-89
2022/09/29 04:12:59;;;;;;;;;;;;;;;8.67;80.57;98327.13;5058696;28;19909;-89
2022/09/29 04:15:24;;;;;;;;;;;;;;;8.96;79.46;98322.75;5058923;28;19908;-89
2022/09/29 04:17:50;;;;;;;;;;;;;;;9.00;79.46;98329.22;5058025;28;19909;-89
2022/09/29 04:20:15;;;;;;;;;;;;;;;8.92;78.98;98321.69;5058022;28;19908;-89
2022/09/29 04:22:41;;;;;;;;;;;;;;;9.03;78.58;98327.84;5057587;28;19931;-89
2022/09/29 04:25:06;;;;;;;;;;;;;;;8.95;78.91;98332.78;5058383;28;19916;-90
2022/09/29 04:27:31;;;;;;;;;;;;;;;9.09;78.72;98324.75;5058132;28;19962;-89
2022/09/29 04:29:56;;;;;;;;;;;;;;;8.86;79.04;98334.53;5057315;28;20007;-89
2022/09/29 04:32:23;;;;;;;;;;;;;;;8.91;79.22;98326.31;5057947;28;19962;-89
2022/09/29 04:34:48;;;;;;;;;;;;;;;8.94;79.03;98336.63;5057742;28;20300;-89
2022/09/29 04:37:13;;;;;;;;;;;;;;;9.15;78.38;98339.13;5058320;28;19908;-90
2022/09/29 04:39:39;;;;;;;;;;;;;;;9.22;77.94;98342.28;5057772;28;19950;-89
2022/09/29 04:42:04;;;;;;;;;;;;;;;9.21;77.75;98346.09;5057326;28;20419;-90
2022/09/29 04:44:29;;;;;;;;;;;;;;;9.29;77.74;98339.22;5056534;28;19909;-89
2022/09/29 04:46:54;;;;;;;;;;;;;;;9.12;77.31;98347.84;5057845;28;20342;-90
2022/09/29 04:49:19;;;;;;;;;;;;;;;9.15;77.94;98347.28;5057257;28;19916;-89
2022/09/29 04:51:45;;;;;;;;;;;;;;;9.05;77.89;98347.38;5057557;28;20341;-89
2022/09/29 04:54:10;;;;;;;;;;;;;;;9.17;77.57;98350.50;5057715;28;19931;-89
2022/09/29 04:56:35;;;;;;;;;;;;;;;9.05;77.42;98341.97;5057492;28;19921;-90
2022/09/29 04:59:00;;;;;;;;;;;;;;;8.83;77.34;98338.63;5057257;28;19963;-89
2022/09/29 05:01:25;;;;;;;;;;;;;;;8.91;78.19;98348.06;5057777;28;19913;-89
2022/09/29 05:03:51;;;;;;;;;;;;;;;8.99;77.99;98349.34;5057068;28;19909;-89
2022/09/29 05:06:16;;;;;;;;;;;;;;;9.04;77.75;98351.19;5057315;28;19908;-89
2022/09/29 05:08:41;;;;;;;;;;;;;;;9.17;77.33;98345.03;5057222;28;19909;-90
2022/09/29 05:11:07;;;;;;;;;;;;;;;9.13;77.04;98354.09;5055522;28;19909;-89
2022/09/29 05:13:33;;;;;;;;;;;;;;;9.02;77.40;98347.94;5056744;28;19982;-89
2022/09/29 05:15:58;;;;;;;;;;;;;;;9.19;76.94;98356.44;5057579;28;19908;-89
2022/09/29 05:18:24;;;;;;;;;;;;;;;9.04;77.22;98346.56;5056990;28;19913;-89
2022/09/29 05:20:49;;;;;;;;;;;;;;;9.11;77.16;98354.41;5056924;28;20350;-89
2022/09/29 05:23:14;;;;;;;;;;;;;;;8.81;78.68;98359.84;5056664;28;19980;-89
2022/09/29 05:25:40;;;;;;;;;;;;;;;8.84;78.05;98361.19;5057026;28;19916;-89
2022/09/29 05:28:05;;;;;;;;;;;;;;;8.89;78.02;98363.06;5057700;28;20210;-89
2022/09/29 05:30:30;;;;;;;;;;;;;;;8.83;77.87;98356.84;5056784;28;19908;-88
2022/09/29 05:32:55;;;;;;;;;;;;;;;8.72;78.00;98362.41;5056751;28;19935;-87
2022/09/29 05:35:20;;;;;;;;;;;;;;;8.95;77.54;98359.97;5056133;28;19944;-89
2022/09/29 05:37:45;;;;;;;;;;;;;;;9.17;76.79;98366.81;5057160;28;20343;-89
2022/09/29 05:40:11;;;;;;;;;;;;;;;8.90;77.32;98368.19;5056976;28;19908;-88
2022/09/29 05:42:36;;;;;;;;;;;;;;;8.53;78.63;98373.13;5056601;28;19915;-88
2022/09/29 05:45:01;;;;;;;;;;;;;;;8.60;77.86;98375.56;5056451;28;19920;-89
2022/09/29 05:47:26;;;;;;;;;;;;;;;8.29;77.79;98369.25;5056787;28;19916;-89
2022/09/29 05:49:51;;;;;;;;;;;;;;;8.24;80.04;98369.28;5056535;28;20380;-89
2022/09/29 05:52:17;;;;;;;;;;;;;;;7.99;80.62;98379.25;5056588;28;20252;-88
2022/09/29 05:54:42;;;;;;;;;;;;;;;8.04;80.58;98387.34;5056425;28;19909;-89
2022/09/29 05:57:13;;;;;;;;;;;;;;;7.92;80.84;98381.47;5056621;28;19955;-89
2022/09/29 05:59:38;;;;;;;;;;;;;;;8.21;79.78;98379.91;5055954;28;20404;-88
2022/09/29 06:02:03;;;;;;;;;;;;;;;8.21;79.33;98382.63;5055957;28;19912;-89
2022/09/29 06:04:28;;;;;;;;;;;;;;;8.61;79.08;98379.88;5055725;28;20261;-88
2022/09/29 06:06:55;;;;;;;;;;;;;;;8.71;78.82;98384.41;5056534;28;19932;-88
2022/09/29 06:09:20;;;;;;;;;;;;;;;8.91;77.92;98396.19;5056161;28;19909;-89
2022/09/29 06:11:45;;;;;;;;;;;;;;;8.90;78.11;98389.13;5055427;28;20003;-88
2022/09/29 06:14:10;;;;;;;;;;;;;;;9.01;77.58;98389.84;5056008;28;19909;-89
2022/09/29 06:16:35;;;;;;;;;;;;;;;8.83;77.30;98392.16;5055874;28;19948;-89
2022/09/29 06:19:01;;;;;;;;;;;;;;;8.85;78.07;98398.94;5055774;28;20011;-89
2022/09/29 06:21:27;;;;;;;;;;;;;;;8.95;77.89;98395.31;5056255;28;19912;-89
2022/09/29 06:23:56;;;;;;;;;;;;;;;8.69;78.29;98398.28;5055919;28;19985;-90
2022/09/29 06:26:21;;;;;;;;;;;;;;;8.93;77.70;98396.72;5056274;28;19909;-90
2022/09/29 06:28:47;;;;;;;;;;;;;;;8.98;77.34;98402.91;5055800;28;20002;-89
2022/09/29 06:31:17;;;;;;;;;;;;;;;8.93;77.63;98399.44;5055594;28;19916;-89
2022/09/29 06:33:43;;;;;;;;;;;;;;;9.03;77.27;98406.69;5055863;28;19909;-86
2022/09/29 06:39:03;;;;;;;;;;;;;;;9.12;77.01;98413.09;5055231;28;19955;-87
2022/09/29 06:41:29;;;;;;;;;;;;;;;8.90;77.72;98411.69;5055504;28;20350;-86
2022/09/29 06:43:54;;;;;;;;;;;;;;;9.09;77.67;98408.25;5055431;28;19909;-85
2022/09/29 06:46:20;;;;;;;;;;;;;;;8.98;77.16;98411.06;5055439;28;19908;-88
2022/09/29 06:48:45;;;;;;;;;;;;;;;9.19;77.19;98416.28;5054861;28;20333;-85
2022/09/29 06:51:10;;;;;;;;;;;;;;;9.03;77.71;98414.84;5055924;28;19996;-91
2022/09/29 06:53:36;;;;;;;;;;;;;;;9.12;77.64;98415.81;5055900;28;19909;-87
2022/09/29 06:56:01;;;;;;;;;;;;;;;9.07;77.93;98421.31;5055803;28;19915;-89
2022/09/29 06:58:27;;;;;;;;;;;;;;;9.11;77.51;98427.81;5055783;28;19908;-88
2022/09/29 07:00:54;;;;;;;;;;;;;;;9.25;77.60;98419.78;5055172;28;19909;-87
2022/09/29 07:03:19;;;;;;;;;;;;;;;9.15;77.78;98425.31;5055132;28;19932;-89
2022/09/29 07:05:44;;;;;;;;;;;;;;;9.36;77.43;98430.53;5054007;28;19909;-93
2022/09/29 07:08:10;;;;;;;;;;;;;;;9.38;76.93;98423.69;5054778;28;19908;-90
2022/09/29 07:10:35;;;;;;;;;;;;;;;9.49;77.08;98438.00;5054668;28;19923;-91
2022/09/29 07:13:00;;;;;;;;;;;;;;;9.53;76.67;98433.59;5054945;28;19970;-91
2022/09/29 07:15:31;;;;;;;;;;;;;;;9.45;76.80;98437.75;5055619;28;19995;-90
2022/09/29 07:17:58;;;;;;;;;;;;;;;9.67;76.81;98438.31;5055334;28;19931;-93
2022/09/29 07:20:24;;;;;;;;;;;;;;;9.54;77.30;98439.84;5054827;28;19909;-91
2022/09/29 07:22:49;;;;;;;;;;;;;;;9.68;77.03;98445.41;5054752;28;19908;-93
2022/09/29 07:25:14;;;;;;;;;;;;;;;9.78;76.97;98449.91;5054964;28;20407;-92
2022/09/29 07:27:39;;;;;;;;;;;;;;;9.88;77.02;98447.03;5054770;28;19909;-92
2022/09/29 07:30:05;;;;;;;;;;;;;;;9.83;76.61;98452.53;5054802;28;19909;-91
2022/09/29 07:32:58;;;;;;;;;;;;;;;9.91;76.80;98449.16;5054609;28;19909;-92
2022/09/29 07:35:23;;;;;;;;;;;;;;;9.85;76.59;98449.53;5057091;28;19916;-94
2022/09/29 07:37:52;;;;;;;;;;;;;;;10.04;75.89;98453.09;5058994;28;19931;-93
2022/09/29 07:40:17;;;;;;;;;;;;;;;10.11;75.92;98455.44;5058830;28;19908;-91
2022/09/29 07:42:42;;;;;;;;;;;;;;;10.19;75.87;98448.50;5058815;28;19919;-92
2022/09/29 07:45:08;;;;;;;;;;;;;;;10.29;75.82;98455.75;5059156;28;19940;-89
2022/09/29 07:47:33;;;;;;;;;;;;;;;10.46;75.90;98457.13;5058643;28;19919;-88
2022/09/29 07:49:58;;;;;;;;;;;;;;;10.34;76.98;98452.94;5058990;28;20273;-87
2022/09/29 07:52:23;;;;;;;;;;;;;;;10.46;76.48;98457.13;5058635;28;19909;-90
2022/09/29 07:54:48;;;;;;;;;;;;;;;10.44;77.38;98464.78;5058623;28;19915;-91
2022/09/29 07:57:13;;;;;;;;;;;;;;;10.34;77.36;98455.66;5058486;28;19913;-92
2022/09/29 07:59:39;;;;;;;;;;;;;;;10.39;77.88;98463.75;5058461;28;19909;-92
2022/09/29 08:02:04;;;;;;;;;;;;;;;10.50;77.09;98463.63;5058385;28;19966;-89
2022/09/29 08:04:30;;;;;;;;;;;;;;;10.41;78.31;98470.84;5060271;28;20449;-91
2022/09/29 08:06:55;;;;;;;;;;;;;;;10.45;77.14;98466.41;5059591;28;20350;-89
2022/09/29 08:09:20;;;;;;;;;;;;;;;10.63;76.45;98475.69;5058449;28;19909;-88
2022/09/29 08:11:45;;;;;;;;;;;;;;;10.70;77.04;98473.41;5058525;28;19970;-90
2022/09/29 08:14:11;;;;;;;;;;;;;;;10.80;76.62;98480.59;5058319;28;19909;-91
2022/09/29 08:16:36;;;;;;;;;;;;;;;10.58;77.03;98482.03;5058050;28;19909;-90
2022/09/29 08:19:01;;;;;;;;;;;;;;;10.74;77.86;98476.34;5058549;28;19909;-89
2022/09/29 08:21:28;;;;;;;;;;;;;;;10.83;77.56;98473.75;5058605;28;20354;-91
2022/09/29 08:23:54;;;;;;;;;;;;;;;10.91;77.55;98483.16;5056999;28;19913;-89
2022/09/29 08:26:20;;;;;;;;;;;;;;;10.96;77.95;98475.69;5057002;28;19916;-87
2022/09/29 08:28:46;;;;;;;;;;;;;;;11.07;77.25;98484.53;5057883;28;19915;-85
2022/09/29 08:31:19;;;;;;;;;;;;;;;11.04;76.42;98482.41;5058321;28;20011;-86
2022/09/29 08:33:44;;;;;;;;;;;;;;;11.14;75.89;98480.59;5058459;28;20249;-86
2022/09/29 08:36:15;;;;;;;;;;;;;;;11.20;75.87;98485.66;5057612;28;19913;-88
2022/09/29 08:38:44;;;;;;;;;;;;;;;11.24;76.28;98488.59;5058125;28;19962;-88
2022/09/29 08:41:19;;;;;;;;;;;;;;;11.18;76.73;98492.53;5056803;28;20357;-87
2022/09/29 08:43:46;;;;;;;;;;;;;;;11.28;76.48;98495.06;5058187;28;19908;-86
2022/09/29 08:46:32;;;;;;;;;;;;;;;11.42;75.34;98491.53;5058172;28;19962;-86
2022/09/29 08:48:59;;;;;;;;;;;;;;;11.53;74.51;98498.41;5057556;28;19962;-86
2022/09/29 08:51:28;;;;;;;;;;;;;;;11.33;73.55;98492.25;5057420;28;20361;-86
2022/09/29 08:53:55;;;;;;;;;;;;;;;11.48;73.04;98497.72;5057545;28;20360;-86
2022/09/29 08:56:21;;;;;;;;;;;;;;;11.50;70.89;98499.03;5058168;28;19908;-86
2022/09/29 08:58:46;;;;;;;;;;;;;;;11.66;71.21;98504.19;5057473;28;19909;-86
2022/09/29 09:01:22;;;;;;;;;;;;;;;11.71;72.40;98503.28;5057818;28;19909;-86
2022/09/29 09:03:48;;;;;;;;;;;;;;;11.68;73.24;98504.69;5057865;28;19924;-86
2022/09/29 09:06:14;;;;;;;;;;;;;;;11.81;72.80;98505.00;5057859;28;19959;-86
2022/09/29 09:08:57;;;;;;;;;;;;;;;11.77;72.35;98502.91;5057311;28;19935;-86
2022/09/29 09:11:44;;;;;;;;;;;;;;;11.86;72.07;98507.63;5056049;28;19916;-85
2022/09/29 09:14:27;;;;;;;;;;;;;;;11.92;71.58;98503.69;5056917;28;20326;-87
2022/09/29 09:17:15;;;;;;;;;;;;;;;11.82;71.16;98509.38;5058018;28;19935;-83
2022/09/29 09:19:54;;;;;;;;;;;;;;;11.95;71.76;98514.00;5057991;28;19909;-87
2022/09/29 09:22:24;;;;;;;;;;;;;;;11.98;71.56;98516.13;5057174;28;19947;-86
2022/09/29 09:25:16;;;;;;;;;;;;;;;12.02;72.37;98521.81;5056507;28;20434;-87
2022/09/29 09:27:43;;;;;;;;;;;;;;;12.18;72.31;98516.84;5048571;28;19931;-87
2022/09/29 09:30:13;;;;;;;;;;;;;;;12.14;72.36;98515.84;5057336;28;20275;-86
2022/09/29 09:32:45;;;;;;;;;;;;;;;12.05;71.56;98523.09;5056738;28;19909;-88
2022/09/29 09:35:23;;;;;;;;;;;;;;;12.13;71.49;98515.03;5056979;28;20407;-86
2022/09/29 09:37:50;;;;;;;;;;;;;;;12.22;71.54;98517.03;5057408;28;19908;-87
2022/09/29 09:40:34;;;;;;;;;;;;;;;12.23;71.55;98516.72;5057344;28;19915;-87
2022/09/29 09:43:03;;;;;;;;;;;;;;;12.16;71.65;98513.63;5057023;28;19916;-87
2022/09/29 09:45:31;;;;;;;;;;;;;;;12.12;71.73;98518.88;5057305;28;19909;-87
2022/09/29 09:48:08;;;;;;;;;;;;;;;12.19;72.02;98526.66;5056596;28;19909;-86
2022/09/29 09:50:36;;;;;;;;;;;;;;;12.14;72.19;98521.31;5056566;28;19913;-87
2022/09/29 09:53:09;;;;;;;;;;;;;;;12.02;73.25;98524.53;5056901;28;19909;-86
2022/09/29 09:55:35;;;;;;;;;;;;;;;12.02;72.68;98519.84;5056507;28;19913;-86
2022/09/29 09:58:04;;;;;;;;;;;;;;;11.84;72.39;98520.81;5055959;28;19912;-88
2022/09/29 10:00:33;;;;;;;;;;;;;;;11.98;73.57;98527.03;5056484;28;20003;-87
2022/09/29 10:03:00;;;;;;;;;;;;;;;11.91;74.17;98529.38;5056434;28;19909;-88
2022/09/29 10:05:33;;;;;;;;;;;;;;;11.94;74.82;98528.75;5055728;28;19959;-88
2022/09/29 10:07:59;;;;;;;;;;;;;;;11.93;72.90;98532.63;5056069;28;19916;-88
2022/09/29 10:10:26;;;;;;;;;;;;;;;12.13;73.09;98530.59;5056620;28;19908;-86
2022/09/29 10:13:05;;;;;;;;;;;;;;;12.23;71.51;98530.41;5056192;28;19908;-87
2022/09/29 10:15:34;;;;;;;;;;;;;;;12.35;72.23;98527.13;5054982;28;20361;-86
2022/09/29 10:18:09;;;;;;;;;;;;;;;12.41;70.89;98530.56;5056465;28;19916;-88
2022/09/29 10:20:36;;;;;;;;;;;;;;;12.32;70.86;98521.47;5056792;28;20012;-88
2022/09/29 10:23:19;;;;;;;;;;;;;;;12.49;67.01;98516.16;5056764;28;19931;-88
2022/09/29 10:25:52;;;;;;;;;;;;;;;12.86;67.59;98523.53;5055731;28;19909;-89
2022/09/29 10:28:18;;;;;;;;;;;;;;;12.59;67.60;98528.78;5056219;28;19915;-89
2022/09/29 10:30:43;;;;;;;;;;;;;;;12.71;68.95;98520.03;5056356;28;19999;-88
2022/09/29 10:33:13;;;;;;;;;;;;;;;12.95;67.66;98524.41;5055669;28;19977;-88
2022/09/29 10:35:40;;;;;;;;;;;;;;;12.74;62.80;98526.81;5055109;28;19920;-88
2022/09/29 10:38:06;;;;;;;;;;;;;;;13.00;62.83;98528.09;5056258;28;19909;-87
2022/09/29 10:40:33;;;;;;;;;;;;;;;12.98;63.25;98522.16;5055606;28;19909;-85
2022/09/29 10:43:14;;;;;;;;;;;;;;;13.07;63.28;98523.03;5055597;28;19912;-87
2022/09/29 10:45:46;;;;;;;;;;;;;;;13.18;64.70;98529.06;5055987;28;19995;-87
2022/09/29 10:48:12;;;;;;;;;;;;;;;13.12;64.58;98528.34;5055930;28;19915;-88
2022/09/29 10:50:47;;;;;;;;;;;;;;;13.35;64.57;98527.53;5053941;28;19956;-87
2022/09/29 10:53:19;;;;;;;;;;;;;;;13.30;64.57;98536.69;5055855;28;20002;-87
2022/09/29 10:55:50;;;;;;;;;;;;;;;13.57;62.51;98526.69;5055700;28;20416;-86
2022/09/29 10:58:19;;;;;;;;;;;;;;;13.71;61.56;98536.75;5055207;28;20008;-85
2022/09/29 11:00:46;;;;;;;;;;;;;;;13.56;59.15;98532.50;5055263;28;19913;-88
2022/09/29 11:03:27;;;;;;;;;;;;;;;13.76;58.01;98536.59;5055414;28;19920;-86
2022/09/29 11:05:58;;;;;;;;;;;;;;;13.51;58.40;98539.69;5055707;28;19969;-84
2022/09/29 11:08:26;;;;;;;;;;;;;;;13.74;62.69;98536.94;5055415;28;19999;-85
2022/09/29 11:11:18;;;;;;;;;;;;;;;13.81;60.97;98533.72;5055091;28;19913;-85
2022/09/29 11:13:44;;;;;;;;;;;;;;;13.77;61.18;98543.69;5055535;28;19912;-85
2022/09/29 11:16:12;;;;;;;;;;;;;;;13.79;61.86;98541.44;5055010;28;20365;-85
2022/09/29 11:18:38;;;;;;;;;;;;;;;13.77;61.73;98539.03;5055478;28;19915;-87
2022/09/29 11:21:15;;;;;;;;;;;;;;;13.97;62.94;98542.31;5055463;28;20316;-87
2022/09/29 11:23:45;;;;;;;;;;;;;;;13.85;61.29;98548.41;5055481;28;19908;-87
2022/09/29 11:26:20;;;;;;;;;;;;;;;14.08;61.77;98548.31;5055343;28;20325;-85
2022/09/29 11:28:54;;;;;;;;;;;;;;;13.98;61.89;98549.41;5054500;28;19948;-86
2022/09/29 11:31:25;;;;;;;;;;;;;;;13.97;61.00;98553.28;5055056;28;19912;-86
2022/09/29 11:34:02;;;;;;;;;;;;;;;14.01;61.27;98550.72;5054757;28;19908;-85
2022/09/29 11:36:41;;;;;;;;;;;;;;;14.00;59.01;98549.09;5054712;28;19913;-86
2022/09/29 11:39:25;;;;;;;;;;;;;;;13.94;57.72;98559.41;5054584;28;19954;-86
2022/09/29 11:42:03;;;;;;;;;;;;;;;14.10;60.72;98557.03;5054694;28;19908;-85
2022/09/29 11:44:54;;;;;;;;;;;;;;;13.93;61.62;98554.25;5054784;28;19943;-85
2022/09/29 11:47:46;;;;;;;;;;;;;;;14.16;57.25;98559.59;5055245;28;20288;-86
2022/09/29 11:50:23;;;;;;;;;;;;;;;14.30;57.28;98565.78;5055532;28;20245;-86
2022/09/29 11:53:07;;;;;;;;;;;;;;;14.36;56.89;98564.50;5056036;28;19935;-86
2022/09/29 11:55:42;;;;;;;;;;;;;;;14.26;57.30;98564.78;5055055;28;19909;-86
2022/09/29 11:58:07;;;;;;;;;;;;;;;14.06;59.03;98568.94;5055356;28;19909;-90
2022/09/29 12:00:35;;;;;;;;;;;;;;;14.21;59.78;98567.69;5055197;28;19913;-92
2022/09/29 12:03:12;;;;;;;;;;;;;;;14.27;58.59;98571.09;5054418;28;19909;-88
2022/09/29 12:05:52;;;;;;;;;;;;;;;14.09;57.48;98565.56;5054836;28;20003;-90
2022/09/29 12:08:26;;;;;;;;;;;;;;;14.18;54.58;98562.84;5054733;28;19915;-89
2022/09/29 12:10:54;;;;;;;;;;;;;;;14.10;56.67;98559.75;5055083;28;19912;-89
2022/09/29 12:13:24;;;;;;;;;;;;;;;14.39;55.96;98562.25;5054034;28;19908;-89
2022/09/29 12:15:51;;;;;;;;;;;;;;;14.21;57.25;98568.50;5054659;28;20087;-90
2022/09/29 12:18:20;;;;;;;;;;;;;;;14.39;55.92;98560.31;5054748;28;19912;-90
2022/09/29 12:20:47;;;;;;;;;;;;;;;14.61;56.56;98565.97;5055330;28;20433;-91
2022/09/29 12:23:13;;;;;;;;;;;;;;;14.41;56.67;98557.25;5058208;28;19916;-90
2022/09/29 12:25:43;;;;;;;;;;;;;;;14.46;56.20;98562.59;5058521;28;19908;-90
2022/09/29 12:28:14;;;;;;;;;;;;;;;14.64;57.32;98562.59;5058094;28;19908;-89
2022/09/29 12:30:47;;;;;;;;;;;;;;;14.74;56.88;98562.28;5057899;28;19915;-89
2022/09/29 12:33:18;;;;;;;;;;;;;;;14.67;55.19;98557.28;5057763;28;19909;-89
2022/09/29 12:35:50;;;;;;;;;;;;;;;14.78;54.03;98565.19;5058122;28;19924;-89
2022/09/29 12:38:21;;;;;;;;;;;;;;;14.67;53.62;98561.94;5057892;28;20346;-89
2022/09/29 12:40:52;;;;;;;;;;;;;;;14.80;54.54;98554.72;5057672;28;19915;-89
2022/09/29 12:43:32;;;;;;;;;;;;;;;14.83;54.65;98554.06;5057626;28;19909;-90
2022/09/29 12:46:02;;;;;;;;;;;;;;;14.75;56.54;98563.91;5058060;28;20334;-90
2022/09/29 12:48:39;;;;;;;;;;;;;;;14.53;55.00;98557.44;5058050;28;19916;-89
2022/09/29 12:51:12;;;;;;;;;;;;;;;14.84;55.45;98561.19;5057662;28;19962;-90
2022/09/29 12:53:57;;;;;;;;;;;;;;;14.43;55.46;98568.72;5057584;28;19908;-89
2022/09/29 12:56:31;;;;;;;;;;;;;;;14.36;54.81;98569.97;5057975;28;19975;-90
2022/09/29 12:59:12;;;;;;;;;;;;;;;14.44;55.08;98557.41;5057933;28;19909;-91
2022/09/29 13:01:37;;;;;;;;;;;;;;;14.51;55.89;98562.44;5056955;28;19974;-88
2022/09/29 13:04:21;;;;;;;;;;;;;;;14.62;54.07;98562.13;5057485;28;20011;-90